createdAt,value
2023-04-12T00:01:42.248Z,14.00
2023-04-12T00:04:11.050Z,13.90
2023-04-12T00:06:40.313Z,13.90
2023-04-12T00:09:08.718Z,13.90
2023-04-12T00:11:36.825Z,13.90
2023-04-12T00:14:04.719Z,13.90
2023-04-12T00:16:32.748Z,13.90
2023-04-12T00:19:01.526Z,13.80
2023-04-12T00:21:29.768Z,13.80
2023-04-12T00:23:59.337Z,13.80
2023-04-12T00:26:27.340Z,13.80
2023-04-12T00:28:55.806Z,13.80
2023-04-12T00:31:23.906Z,13.80
2023-04-12T00:33:51.918Z,13.80
2023-04-12T00:36:20.513Z,13.70
2023-04-12T00:38:48.493Z,13.70
2023-04-12T00:41:18.770Z,13.70
2023-04-12T00:43:47.277Z,13.70
2023-04-12T00:46:17.491Z,13.70
2023-04-12T00:48:47.952Z,13.70
2023-04-12T00:51:17.971Z,13.60
2023-04-12T00:53:46.287Z,13.60
2023-04-12T00:56:14.375Z,13.60
2023-04-12T00:58:43.638Z,13.60
2023-04-12T01:01:11.512Z,13.60
2023-04-12T01:03:43.614Z,13.60
2023-04-12T01:06:19.595Z,13.50
2023-04-12T01:09:01.556Z,13.50
2023-04-12T01:11:36.494Z,13.50
2023-04-12T01:14:14.907Z,13.50
2023-04-12T01:16:47.720Z,13.50
2023-04-12T01:19:37.935Z,13.40
2023-04-12T01:22:18.133Z,13.40
2023-04-12T01:25:03.755Z,13.40
2023-04-12T01:27:43.340Z,13.40
2023-04-12T01:30:16.412Z,13.40
2023-04-12T01:32:49.654Z,13.40
2023-04-12T01:35:21.682Z,13.30
2023-04-12T01:37:49.930Z,13.40
2023-04-12T01:40:20.571Z,13.30
2023-04-12T01:42:49.852Z,13.30
2023-04-12T01:45:17.758Z,13.30
2023-04-12T01:47:45.921Z,13.30
2023-04-12T01:50:26.549Z,13.30
2023-04-12T01:53:04.487Z,13.30
2023-04-12T01:55:37.504Z,13.30
2023-04-12T01:58:08.470Z,13.20
2023-04-12T02:00:38.186Z,13.30
2023-04-12T02:03:07.005Z,13.20
2023-04-12T02:05:35.615Z,13.20
2023-04-12T02:08:04.670Z,13.20
2023-04-12T02:10:33.932Z,13.20
2023-04-12T02:13:02.550Z,13.20
2023-04-12T02:15:33.416Z,13.10
2023-04-12T02:18:01.527Z,13.10
2023-04-12T02:20:30.677Z,13.10
2023-04-12T02:23:00.254Z,13.10
2023-04-12T02:25:28.408Z,13.10
2023-04-12T02:27:56.348Z,13.10
2023-04-12T02:30:25.108Z,13.10
2023-04-12T02:32:56.234Z,13.00
2023-04-12T02:35:28.536Z,13.00
2023-04-12T02:38:03.627Z,13.00
2023-04-12T02:40:31.646Z,13.00
2023-04-12T02:42:59.863Z,13.00
2023-04-12T02:45:28.684Z,13.00
2023-04-12T02:47:59.374Z,13.00
2023-04-12T02:50:30.507Z,12.90
2023-04-12T02:53:10.419Z,12.90
2023-04-12T02:55:40.411Z,12.90
2023-04-12T02:58:09.662Z,12.90
2023-04-12T03:00:43.865Z,12.90
2023-04-12T03:03:17.895Z,12.90
2023-04-12T03:05:47.996Z,12.90
2023-04-12T03:08:18.006Z,12.80
2023-04-12T03:10:53.050Z,12.80
2023-04-12T03:13:21.354Z,12.80
2023-04-12T03:15:59.086Z,12.80
2023-04-12T03:18:36.831Z,12.80
2023-04-12T03:21:05.564Z,12.80
2023-04-12T03:23:33.436Z,12.70
2023-04-12T03:26:12.988Z,12.70
2023-04-12T03:28:50.104Z,12.70
2023-04-12T03:31:20.957Z,12.70
2023-04-12T03:33:50.245Z,12.70
2023-04-12T03:36:24.916Z,12.60
2023-04-12T03:39:02.367Z,12.60
2023-04-12T03:41:33.180Z,12.60
2023-04-12T03:44:04.929Z,12.60
2023-04-12T03:46:35.006Z,12.60
2023-04-12T03:49:08.991Z,12.60
2023-04-12T03:51:42.512Z,12.60
2023-04-12T03:54:11.569Z,12.50
2023-04-12T03:56:49.236Z,12.50
2023-04-12T03:59:25.234Z,12.50
2023-04-12T04:01:53.179Z,12.50
2023-04-12T04:04:24.735Z,12.50
2023-04-12T04:06:56.657Z,12.50
2023-04-12T04:09:25.685Z,12.50
2023-04-12T04:11:53.842Z,12.50
2023-04-12T04:14:22.968Z,12.40
2023-04-12T04:16:51.862Z,12.40
2023-04-12T04:19:22.747Z,12.40
2023-04-12T04:21:50.977Z,12.40
2023-04-12T04:24:22.297Z,12.40
2023-04-12T04:26:54.299Z,12.40
2023-04-12T04:29:26.008Z,12.40
2023-04-12T04:31:57.508Z,12.40
2023-04-12T04:34:27.400Z,12.40
2023-04-12T04:37:04.048Z,12.40
2023-04-12T04:39:32.971Z,12.40
2023-04-12T04:42:01.061Z,12.30
2023-04-12T04:44:51.089Z,12.30
2023-04-12T04:47:19.074Z,12.30
2023-04-12T04:49:49.765Z,12.30
2023-04-12T04:52:37.655Z,12.30
2023-04-12T04:55:11.730Z,12.30
2023-04-12T04:57:41.850Z,12.30
2023-04-12T05:00:13.254Z,12.30
2023-04-12T05:02:45.796Z,12.30
2023-04-12T05:05:22.970Z,12.30
2023-04-12T05:07:53.715Z,12.30
2023-04-12T05:10:21.864Z,12.30
2023-04-12T05:12:50.138Z,12.30
2023-04-12T05:15:18.112Z,12.30
2023-04-12T05:17:46.117Z,12.30
2023-04-12T05:20:14.160Z,12.30
2023-04-12T05:22:43.358Z,12.40
2023-04-12T05:25:11.535Z,12.40
2023-04-12T05:27:46.427Z,12.40
2023-04-12T05:30:17.320Z,12.40
2023-04-12T05:32:45.844Z,12.40
2023-04-12T05:35:16.160Z,12.40
2023-04-12T05:37:46.520Z,12.50
2023-04-12T05:40:14.945Z,12.50
2023-04-12T05:42:43.590Z,12.50
2023-04-12T05:45:13.245Z,12.50
2023-04-12T05:47:43.016Z,12.60
2023-04-12T05:50:12.295Z,12.60
2023-04-12T05:52:41.328Z,12.60
2023-04-12T05:55:11.570Z,12.60
2023-04-12T05:57:42.085Z,12.70
2023-04-12T06:00:16.674Z,12.70
2023-04-12T06:02:47.591Z,12.70
2023-04-12T06:05:17.764Z,12.80
2023-04-12T06:07:48.072Z,12.80
2023-04-12T06:10:18.261Z,12.80
2023-04-12T06:12:49.928Z,12.90
2023-04-12T06:15:19.773Z,12.90
2023-04-12T06:17:50.816Z,13.00
2023-04-12T06:20:19.474Z,13.00
2023-04-12T06:22:47.414Z,13.00
2023-04-12T06:25:19.354Z,13.10
2023-04-12T06:27:48.670Z,13.10
2023-04-12T06:30:19.687Z,13.20
2023-04-12T06:32:48.569Z,13.20
2023-04-12T06:35:16.908Z,13.30
2023-04-12T06:37:44.883Z,13.30
2023-04-12T06:40:13.478Z,13.40
2023-04-12T06:42:42.823Z,13.40
2023-04-12T06:45:12.692Z,13.40
2023-04-12T06:47:40.696Z,13.40
2023-04-12T06:50:09.712Z,13.50
2023-04-12T06:52:37.596Z,13.60
2023-04-12T06:55:07.113Z,13.60
2023-04-12T06:57:34.966Z,13.60
2023-04-12T07:00:04.677Z,13.70
2023-04-12T07:02:32.838Z,13.80
2023-04-12T07:05:00.929Z,13.80
2023-04-12T07:07:29.485Z,13.80
2023-04-12T07:09:57.398Z,13.90
2023-04-12T07:12:25.326Z,13.90
2023-04-12T07:14:54.130Z,14.00
2023-04-12T07:17:23.520Z,14.10
2023-04-12T07:19:52.166Z,14.10
2023-04-12T07:22:20.003Z,14.20
2023-04-12T07:24:47.953Z,14.20
2023-04-12T07:27:16.073Z,14.30
2023-04-12T07:29:44.235Z,14.30
2023-04-12T07:32:12.244Z,14.40
2023-04-12T07:34:41.849Z,14.40
2023-04-12T07:37:09.824Z,14.50
2023-04-12T07:39:40.406Z,14.50
2023-04-12T07:42:08.371Z,14.60
2023-04-12T07:44:38.649Z,14.70
2023-04-12T07:47:07.188Z,14.80
2023-04-12T07:49:35.105Z,15.00
2023-04-12T07:52:04.586Z,15.10
2023-04-12T07:54:32.513Z,15.30
2023-04-12T07:57:02.406Z,15.50
2023-04-12T07:59:31.049Z,15.70
2023-04-12T08:01:59.274Z,15.90
2023-04-12T08:04:28.245Z,16.20
2023-04-12T08:06:56.571Z,16.40
2023-04-12T08:09:25.976Z,16.60
2023-04-12T08:11:53.895Z,16.90
2023-04-12T08:14:21.896Z,17.10
2023-04-12T08:16:49.803Z,17.30
2023-04-12T08:19:19.050Z,17.50
2023-04-12T08:21:46.909Z,17.80
2023-04-12T08:24:14.805Z,18.00
2023-04-12T08:26:43.988Z,18.20
2023-04-12T08:29:12.201Z,18.40
2023-04-12T08:31:40.911Z,18.60
2023-04-12T08:34:08.843Z,18.80
2023-04-12T08:36:36.811Z,19.00
2023-04-12T08:39:04.976Z,19.10
2023-04-12T08:41:36.044Z,19.30
2023-04-12T08:44:06.892Z,19.40
2023-04-12T08:46:37.321Z,19.60
2023-04-12T08:49:05.376Z,19.80
2023-04-12T08:51:36.207Z,19.90
2023-04-12T08:54:05.906Z,20.00
2023-04-12T08:56:34.166Z,20.10
2023-04-12T08:59:03.031Z,20.20
2023-04-12T09:01:32.324Z,20.20
2023-04-12T09:04:00.702Z,20.20
2023-04-12T09:06:28.868Z,20.10
2023-04-12T09:08:59.389Z,20.10
2023-04-12T09:11:29.469Z,20.00
2023-04-12T09:13:59.202Z,20.00
2023-04-12T09:16:41.311Z,19.90
2023-04-12T09:19:10.292Z,19.90
2023-04-12T09:21:48.554Z,19.80
2023-04-12T09:24:16.418Z,19.70
2023-04-12T09:26:44.297Z,19.60
2023-04-12T09:29:25.991Z,19.50
2023-04-12T09:32:02.151Z,19.50
2023-04-12T09:34:30.819Z,19.50
2023-04-12T09:36:59.204Z,19.40
2023-04-12T09:39:34.103Z,19.30
2023-04-12T09:42:14.924Z,19.20
2023-04-12T09:44:46.345Z,19.20
2023-04-12T09:47:15.641Z,19.20
2023-04-12T09:49:45.807Z,19.10
2023-04-12T09:52:15.757Z,19.10
2023-04-12T09:54:46.471Z,19.10
2023-04-12T09:57:18.930Z,19.00
2023-04-12T09:59:52.195Z,19.00
2023-04-12T10:02:28.906Z,19.00
2023-04-12T10:04:57.535Z,19.00
2023-04-12T10:07:27.205Z,19.00
2023-04-12T10:09:55.726Z,19.00
2023-04-12T10:12:23.904Z,19.00
2023-04-12T10:14:53.284Z,18.90
2023-04-12T10:17:26.851Z,18.90
2023-04-12T10:19:55.750Z,19.00
2023-04-12T10:22:23.821Z,18.90
2023-04-12T10:24:52.602Z,18.90
2023-04-12T10:27:27.175Z,18.90
2023-04-12T10:29:55.490Z,18.90
2023-04-12T10:32:26.189Z,18.90
2023-04-12T10:35:00.566Z,18.90
2023-04-12T10:38:04.649Z,18.90
2023-04-12T10:40:34.356Z,18.90
2023-04-12T10:43:27.592Z,19.20
2023-04-12T10:45:55.992Z,19.20
2023-04-12T10:48:35.827Z,19.10
2023-04-12T10:51:15.777Z,19.10
2023-04-12T10:53:43.829Z,19.10
2023-04-12T10:56:41.706Z,19.00
2023-04-12T10:59:15.099Z,19.00
2023-04-12T11:02:10.813Z,18.90
2023-04-12T11:05:08.970Z,18.90
2023-04-12T11:08:06.634Z,18.90
2023-04-12T11:10:40.871Z,18.90
2023-04-12T11:13:12.895Z,18.90
2023-04-12T11:15:41.333Z,18.90
2023-04-12T11:18:18.680Z,18.90
2023-04-12T11:20:48.052Z,18.80
2023-04-12T11:23:16.580Z,18.90
2023-04-12T11:25:50.525Z,18.90
2023-04-12T11:28:28.857Z,18.90
2023-04-12T11:30:59.593Z,18.80
2023-04-12T11:33:35.721Z,18.80
2023-04-12T11:36:12.202Z,18.80
2023-04-12T11:38:41.316Z,18.80
2023-04-12T11:41:11.485Z,18.80
2023-04-12T11:43:39.777Z,18.80
2023-04-12T11:46:08.181Z,18.80
2023-04-12T11:48:38.490Z,18.80
2023-04-12T11:51:24.606Z,18.80
2023-04-12T11:53:54.800Z,18.80
2023-04-12T11:56:23.867Z,18.90
2023-04-12T11:58:52.238Z,18.90
2023-04-12T12:01:22.833Z,18.80
2023-04-12T12:03:51.697Z,18.80
2023-04-12T12:06:22.516Z,18.80
2023-04-12T12:08:51.973Z,18.90
2023-04-12T12:11:23.511Z,18.80
2023-04-12T12:13:53.652Z,18.80
2023-04-12T12:16:27.649Z,18.80
2023-04-12T12:18:57.448Z,18.90
2023-04-12T12:21:27.749Z,18.90
2023-04-12T12:23:58.544Z,18.90
2023-04-12T12:26:29.058Z,18.90
2023-04-12T12:29:00.219Z,18.90
2023-04-12T12:31:29.596Z,18.90
2023-04-12T12:34:00.996Z,18.90
2023-04-12T12:36:36.611Z,18.90
2023-04-12T12:39:10.230Z,18.90
2023-04-12T12:41:38.936Z,18.90
2023-04-12T12:44:07.860Z,18.90
2023-04-12T12:49:06.867Z,18.90
2023-04-12T12:51:36.473Z,18.90
2023-04-12T12:54:04.498Z,18.90
2023-04-12T12:56:32.455Z,19.00
2023-04-12T12:59:00.385Z,18.90
2023-04-12T13:01:28.517Z,19.00
2023-04-12T13:03:56.642Z,19.00
2023-04-12T13:06:25.803Z,19.00
2023-04-12T13:08:56.163Z,19.00
2023-04-12T13:11:24.250Z,19.00
2023-04-12T13:13:52.118Z,19.00
2023-04-12T13:16:20.030Z,19.00
2023-04-12T13:18:47.986Z,19.00
2023-04-12T13:21:16.053Z,19.00
2023-04-12T13:23:43.934Z,19.00
2023-04-12T13:26:13.123Z,19.00
2023-04-12T13:28:41.016Z,19.00
2023-04-12T13:31:08.923Z,18.90
2023-04-12T13:33:36.849Z,18.90
2023-04-12T13:36:05.247Z,18.90
2023-04-12T13:38:33.109Z,18.90
2023-04-12T13:41:01.056Z,18.90
2023-04-12T13:43:30.352Z,18.90
2023-04-12T13:45:58.249Z,18.90
2023-04-12T13:48:26.292Z,18.90
2023-04-12T13:50:55.502Z,19.00
2023-04-12T13:53:23.572Z,18.90
2023-04-12T13:55:51.419Z,18.90
2023-04-12T13:58:19.319Z,18.90
2023-04-12T14:00:48.665Z,18.90
2023-04-12T14:03:16.527Z,19.00
2023-04-12T14:05:44.418Z,18.90
2023-04-12T14:08:12.334Z,18.90
2023-04-12T14:10:40.275Z,18.90
2023-04-12T14:13:08.137Z,18.90
2023-04-12T14:15:35.986Z,18.90
2023-04-12T14:18:05.515Z,18.90
2023-04-12T14:20:33.452Z,18.90
2023-04-12T14:23:01.371Z,18.90
2023-04-12T14:25:29.298Z,18.90
2023-04-12T14:27:57.887Z,18.90
2023-04-12T14:30:26.145Z,18.80
2023-04-12T14:32:54.057Z,18.80
2023-04-12T14:35:23.378Z,18.80
2023-04-12T14:37:51.357Z,18.80
2023-04-12T14:40:20.012Z,18.80
2023-04-12T14:42:47.928Z,18.80
2023-04-12T14:45:17.336Z,18.80
2023-04-12T14:47:45.325Z,18.80
2023-04-12T14:50:13.353Z,18.80
2023-04-12T14:52:42.708Z,18.70
2023-04-12T14:55:11.493Z,18.80
2023-04-12T14:57:40.435Z,18.70
2023-04-12T15:00:13.403Z,18.70
2023-04-12T15:02:41.697Z,18.70
2023-04-12T15:05:10.347Z,18.70
2023-04-12T15:07:39.338Z,18.70
2023-04-12T15:10:10.943Z,18.70
2023-04-12T15:12:38.787Z,18.70
2023-04-12T15:15:08.081Z,18.70
2023-04-12T15:17:35.977Z,18.70
2023-04-12T15:20:09.264Z,18.60
2023-04-12T15:22:37.294Z,18.60
2023-04-12T15:25:06.672Z,18.60
2023-04-12T15:27:36.008Z,18.60
2023-04-12T15:30:07.978Z,18.60
2023-04-12T15:32:38.600Z,18.60
2023-04-12T15:37:42.019Z,18.50
2023-04-12T15:40:13.987Z,18.50
2023-04-12T15:42:44.965Z,18.50
2023-04-12T15:45:13.067Z,18.50
2023-04-12T15:47:41.578Z,18.50
2023-04-12T15:50:10.308Z,18.50
2023-04-12T15:52:38.237Z,18.40
2023-04-12T15:55:07.078Z,18.40
2023-04-12T15:57:36.549Z,18.40
2023-04-12T16:00:20.692Z,18.40
2023-04-12T16:02:54.678Z,18.40
2023-04-12T16:05:24.464Z,18.40
2023-04-12T16:07:52.540Z,18.40
2023-04-12T16:10:22.218Z,18.40
2023-04-12T16:12:50.839Z,18.30
2023-04-12T16:15:21.622Z,18.30
2023-04-12T16:17:53.220Z,18.30
2023-04-12T16:20:22.429Z,18.30
2023-04-12T16:22:54.266Z,18.30
2023-04-12T16:25:23.247Z,18.30
2023-04-12T16:27:51.662Z,18.30
2023-04-12T16:30:22.421Z,18.20
2023-04-12T16:32:51.527Z,18.20
2023-04-12T16:35:19.512Z,18.20
2023-04-12T16:37:47.991Z,18.20
2023-04-12T16:40:17.119Z,18.20
2023-04-12T16:42:45.926Z,18.20
2023-04-12T16:45:15.060Z,18.20
2023-04-12T16:47:47.803Z,18.10
2023-04-12T16:50:16.525Z,18.20
2023-04-12T16:52:44.583Z,18.20
2023-04-12T16:55:13.332Z,18.10
2023-04-12T16:57:44.130Z,18.10
2023-04-12T17:00:19.510Z,18.10
2023-04-12T17:02:51.775Z,18.10
2023-04-12T17:05:21.436Z,18.10
2023-04-12T17:07:51.394Z,18.00
2023-04-12T17:10:21.651Z,18.10
2023-04-12T17:12:52.815Z,18.10
2023-04-12T17:15:22.690Z,18.10
2023-04-12T17:17:55.332Z,18.00
2023-04-12T17:20:23.939Z,18.00
2023-04-12T17:22:52.135Z,18.00
2023-04-12T17:25:22.121Z,18.00
2023-04-12T17:27:51.550Z,18.00
2023-04-12T17:30:19.456Z,18.00
2023-04-12T17:32:48.756Z,18.00
2023-04-12T17:35:19.844Z,18.00
2023-04-12T17:37:48.237Z,18.00
2023-04-12T17:40:16.854Z,18.00
2023-04-12T17:42:44.977Z,18.00
2023-04-12T17:45:14.806Z,17.90
2023-04-12T17:47:43.780Z,17.90
2023-04-12T17:50:12.840Z,17.90
2023-04-12T17:52:42.380Z,17.90
2023-04-12T17:55:12.490Z,17.90
2023-04-12T17:57:40.651Z,17.90
2023-04-12T18:00:11.593Z,17.90
2023-04-12T18:02:44.690Z,17.90
2023-04-12T18:05:13.234Z,17.90
2023-04-12T18:07:42.606Z,17.90
2023-04-12T18:10:15.529Z,17.90
2023-04-12T18:12:45.020Z,17.90
2023-04-12T18:15:13.029Z,17.90
2023-04-12T18:17:41.070Z,17.90
2023-04-12T18:20:11.369Z,17.90
2023-04-12T18:22:39.861Z,17.80
2023-04-12T18:25:11.604Z,17.80
2023-04-12T18:27:39.584Z,17.80
2023-04-12T18:30:09.339Z,17.80
2023-04-12T18:32:37.411Z,17.80
2023-04-12T18:35:06.291Z,17.80
2023-04-12T18:37:34.474Z,17.80
2023-04-12T18:40:02.579Z,17.80
2023-04-12T18:42:31.943Z,17.80
2023-04-12T18:44:59.932Z,17.80
2023-04-12T18:47:28.579Z,17.80
2023-04-12T18:49:56.544Z,17.80
2023-04-12T18:52:24.544Z,17.70
2023-04-12T18:54:52.431Z,17.70
2023-04-12T18:57:20.452Z,17.70
2023-04-12T18:59:51.407Z,17.70
2023-04-12T19:02:19.505Z,17.70
2023-04-12T19:04:47.657Z,17.70
2023-04-12T19:07:16.359Z,17.70
2023-04-12T19:09:44.341Z,17.70
2023-04-12T19:12:12.220Z,17.70
2023-04-12T19:14:40.112Z,17.70
2023-04-12T19:17:09.440Z,17.70
2023-04-12T19:19:37.411Z,17.70
2023-04-12T19:22:05.329Z,17.70
2023-04-12T19:24:33.765Z,17.60
2023-04-12T19:27:01.792Z,17.60
2023-04-12T19:29:29.684Z,17.60
2023-04-12T19:31:58.127Z,17.60
2023-04-12T19:34:27.746Z,17.60
2023-04-12T19:36:55.630Z,17.60
2023-04-12T19:39:23.966Z,17.60
2023-04-12T19:41:52.483Z,17.60
2023-04-12T19:44:20.955Z,17.60
2023-04-12T19:46:48.836Z,17.60
2023-04-12T19:49:16.733Z,17.60
2023-04-12T19:51:47.565Z,17.60
2023-04-12T19:54:15.578Z,17.60
2023-04-12T19:56:44.197Z,17.60
2023-04-12T19:59:12.286Z,17.60
2023-04-12T20:01:48.383Z,17.60
2023-04-12T20:04:17.089Z,17.50
2023-04-12T20:06:46.906Z,17.50
2023-04-12T20:09:15.266Z,17.50
2023-04-12T20:11:43.271Z,17.50
2023-04-12T20:14:11.454Z,17.50
2023-04-12T20:16:42.621Z,17.50
2023-04-12T20:19:11.168Z,17.50
2023-04-12T20:21:39.297Z,17.50
2023-04-12T20:24:09.235Z,17.50
2023-04-12T20:26:37.440Z,17.50
2023-04-12T20:29:06.631Z,17.50
2023-04-12T20:31:34.829Z,17.50
2023-04-12T20:34:04.003Z,17.50
2023-04-12T20:36:32.773Z,17.50
2023-04-12T20:39:01.649Z,17.50
2023-04-12T20:41:30.974Z,17.50
2023-04-12T20:43:59.407Z,17.50
2023-04-12T20:46:27.298Z,17.50
2023-04-12T20:48:56.324Z,17.50
2023-04-12T20:51:25.121Z,17.50
2023-04-12T20:53:53.004Z,17.50
2023-04-12T20:56:20.892Z,17.50
2023-04-12T20:58:50.145Z,17.40
2023-04-12T21:01:18.592Z,17.40
2023-04-12T21:03:47.566Z,17.40
2023-04-12T21:06:15.781Z,17.40
2023-04-12T21:08:44.449Z,17.40
2023-04-12T21:11:12.377Z,17.40
2023-04-12T21:13:40.596Z,17.40
2023-04-12T21:16:14.442Z,17.40
2023-04-12T21:18:42.752Z,17.40
2023-04-12T21:21:10.692Z,17.40
2023-04-12T21:23:38.564Z,17.40
2023-04-12T21:26:07.036Z,17.40
2023-04-12T21:28:34.896Z,17.40
2023-04-12T21:31:03.958Z,17.40
2023-04-12T21:33:34.728Z,17.40
2023-04-12T21:36:02.662Z,17.40
2023-04-12T21:38:30.681Z,17.40
2023-04-12T21:41:07.028Z,17.40
2023-04-12T21:43:34.982Z,17.40
2023-04-12T21:46:03.017Z,17.40
2023-04-12T21:48:30.925Z,17.40
2023-04-12T21:51:00.216Z,17.40
2023-04-12T21:53:28.449Z,17.40
2023-04-12T21:55:56.353Z,17.40
2023-04-12T21:58:24.215Z,17.40
2023-04-12T22:00:52.518Z,17.40
2023-04-12T22:03:20.503Z,17.40
2023-04-12T22:06:00.785Z,17.40
2023-04-12T22:08:34.108Z,17.40
2023-04-12T22:11:02.356Z,17.40
2023-04-12T22:13:30.738Z,17.40
2023-04-12T22:16:00.664Z,17.40
2023-04-12T22:18:28.562Z,17.40
2023-04-12T22:20:57.742Z,17.40
2023-04-12T22:23:25.632Z,17.40
2023-04-12T22:25:58.282Z,17.40
2023-04-12T22:28:26.234Z,17.40
2023-04-12T22:30:56.986Z,17.40
2023-04-12T22:33:25.111Z,17.40
2023-04-12T22:35:53.096Z,17.40
2023-04-12T22:38:20.976Z,17.40
2023-04-12T22:40:48.966Z,17.40
2023-04-12T22:43:20.812Z,17.40
2023-04-12T22:45:49.041Z,17.40
2023-04-12T22:48:16.895Z,17.40
2023-04-12T22:50:45.561Z,17.40
2023-04-12T22:53:13.872Z,17.40
2023-04-12T22:55:42.185Z,17.40
2023-04-12T22:58:10.186Z,17.40
2023-04-12T23:00:40.060Z,17.40
2023-04-12T23:03:10.810Z,17.40
2023-04-12T23:05:38.941Z,17.40
2023-04-12T23:08:07.154Z,17.40
2023-04-12T23:10:35.018Z,17.40
2023-04-12T23:13:03.205Z,17.40
2023-04-12T23:15:31.603Z,17.40
2023-04-12T23:18:01.794Z,17.40
2023-04-12T23:20:30.402Z,17.40
2023-04-12T23:22:58.697Z,17.40
2023-04-12T23:25:37.947Z,17.30
2023-04-12T23:28:07.527Z,17.40
2023-04-12T23:30:35.360Z,17.30
2023-04-12T23:33:04.690Z,17.30
2023-04-12T23:35:32.665Z,17.30
2023-04-12T23:38:01.472Z,17.30
2023-04-12T23:40:30.475Z,17.30
2023-04-12T23:42:58.698Z,17.30
2023-04-12T23:45:27.243Z,17.30
2023-04-12T23:47:55.248Z,17.30
2023-04-12T23:50:25.199Z,17.30
2023-04-12T23:52:53.025Z,17.30
2023-04-12T23:55:20.917Z,17.30
2023-04-12T23:57:48.779Z,17.30
